createdAt,value
2019-02-11T00:00:15.234Z,86097.16
2019-02-11T00:02:42.099Z,86093.37
2019-02-11T00:05:08.872Z,86092.53
2019-02-11T00:07:35.667Z,86094.33
2019-02-11T00:10:02.922Z,86087.28
2019-02-11T00:12:29.707Z,86085.51
2019-02-11T00:14:56.499Z,86081.70
2019-02-11T00:17:23.359Z,86078.69
2019-02-11T00:19:50.154Z,86076.48
2019-02-11T00:22:16.937Z,86076.54
2019-02-11T00:24:43.813Z,86081.62
2019-02-11T00:27:10.602Z,86076.23
2019-02-11T00:29:37.408Z,86080.89
2019-02-11T00:32:04.254Z,86083.25
2019-02-11T00:34:31.052Z,86073.81
2019-02-11T00:36:57.836Z,86076.81
2019-02-11T00:39:24.704Z,86086.33
2019-02-11T00:41:51.488Z,86078.78
2019-02-11T00:44:18.279Z,86086.18
2019-02-11T00:46:45.265Z,86079.80
2019-02-11T00:49:12.043Z,86081.10
2019-02-11T00:51:38.827Z,86072.70
2019-02-11T00:54:05.659Z,86067.36
2019-02-11T00:56:32.443Z,86070.11
2019-02-11T00:58:59.235Z,86068.27
2019-02-11T01:01:26.086Z,86070.16
2019-02-11T01:03:52.884Z,86069.65
2019-02-11T01:06:19.670Z,86073.16
2019-02-11T01:08:46.488Z,86082.31
2019-02-11T01:11:13.275Z,86080.47
2019-02-11T01:13:40.071Z,86085.72
2019-02-11T01:16:06.923Z,86079.91
2019-02-11T01:18:33.759Z,86082.40
2019-02-11T01:21:00.547Z,86084.63
2019-02-11T01:23:27.497Z,86079.67
2019-02-11T01:25:54.271Z,86078.62
2019-02-11T01:28:21.067Z,86083.70
2019-02-11T01:30:47.933Z,86084.97
2019-02-11T01:33:14.731Z,86092.79
2019-02-11T01:35:41.519Z,86082.86
2019-02-11T01:38:08.441Z,86082.25
2019-02-11T01:40:35.237Z,86081.67
2019-02-11T01:43:02.024Z,86086.52
2019-02-11T01:45:28.949Z,86082.81
2019-02-11T01:47:55.782Z,86078.03
2019-02-11T01:50:22.671Z,86079.29
2019-02-11T01:52:49.588Z,86074.67
2019-02-11T01:55:16.386Z,86080.05
2019-02-11T01:57:43.174Z,86081.38
2019-02-11T02:00:13.084Z,86079.97
2019-02-11T02:02:39.896Z,86079.12
2019-02-11T02:05:07.876Z,86084.72
2019-02-11T02:07:34.723Z,86083.38
2019-02-11T02:10:01.624Z,86082.87
2019-02-11T02:12:28.409Z,86075.12
2019-02-11T02:14:55.272Z,86078.32
2019-02-11T02:17:22.055Z,86067.38
2019-02-11T02:19:48.838Z,86061.98
2019-02-11T02:22:15.675Z,86066.27
2019-02-11T02:24:42.451Z,86071.61
2019-02-11T02:27:09.233Z,86067.20
2019-02-11T02:29:36.077Z,86056.75
2019-02-11T02:32:02.856Z,86056.94
2019-02-11T02:34:29.653Z,86052.49
2019-02-11T02:36:56.516Z,86052.40
2019-02-11T02:39:23.316Z,86055.69
2019-02-11T02:41:50.110Z,86049.83
2019-02-11T02:44:16.962Z,86052.32
2019-02-11T02:46:43.758Z,86060.66
2019-02-11T02:49:10.588Z,86046.42
2019-02-11T02:51:37.446Z,86043.59
2019-02-11T02:54:04.229Z,86049.98
2019-02-11T02:56:31.030Z,86053.53
2019-02-11T02:58:57.898Z,86052.23
2019-02-11T03:01:24.692Z,86055.73
2019-02-11T03:03:51.469Z,86055.47
2019-02-11T03:06:18.316Z,86055.87
2019-02-11T03:08:45.108Z,86064.09
2019-02-11T03:11:11.891Z,86057.82
2019-02-11T03:13:38.817Z,86056.98
2019-02-11T03:16:05.598Z,86055.77
2019-02-11T03:18:32.393Z,86060.02
2019-02-11T03:20:59.252Z,86053.57
2019-02-11T03:23:26.036Z,86058.11
2019-02-11T03:25:52.815Z,86061.00
2019-02-11T03:28:19.737Z,86061.61
2019-02-11T03:30:46.524Z,86062.97
2019-02-11T03:33:13.315Z,86064.45
2019-02-11T03:35:40.203Z,86063.91
2019-02-11T03:38:07.003Z,86068.95
2019-02-11T03:40:33.882Z,86076.78
2019-02-11T03:43:00.750Z,86075.09
2019-02-11T03:45:27.539Z,86078.84
2019-02-11T03:47:54.335Z,86079.59
2019-02-11T03:50:24.551Z,86079.59
2019-02-11T03:52:51.348Z,86092.57
2019-02-11T03:55:18.141Z,86092.21
2019-02-11T03:57:45.000Z,86091.67
2019-02-11T04:00:11.883Z,86097.77
2019-02-11T04:02:38.692Z,86097.66
2019-02-11T04:05:05.943Z,86097.41
2019-02-11T04:07:32.840Z,86103.93
2019-02-11T04:09:59.626Z,86105.69
2019-02-11T04:12:26.575Z,86110.67
2019-02-11T04:14:53.361Z,86116.77
2019-02-11T04:17:20.147Z,86119.75
2019-02-11T04:19:47.053Z,86118.46
2019-02-11T04:22:13.849Z,86127.63
2019-02-11T04:24:40.645Z,86133.98
2019-02-11T04:27:07.569Z,86131.83
2019-02-11T04:29:34.373Z,86133.34
2019-02-11T04:32:01.171Z,86133.93
2019-02-11T04:34:28.045Z,86135.94
2019-02-11T04:36:54.844Z,86144.05
2019-02-11T04:39:21.638Z,86148.79
2019-02-11T04:41:48.575Z,86147.84
2019-02-11T04:44:15.361Z,86148.39
2019-02-11T04:46:42.150Z,86146.88
2019-02-11T04:49:09.001Z,86147.09
2019-02-11T04:51:35.832Z,86150.08
2019-02-11T04:54:02.626Z,86149.41
2019-02-11T04:56:29.494Z,86145.70
2019-02-11T04:58:56.284Z,86158.89
2019-02-11T05:01:23.091Z,86152.73
2019-02-11T05:03:49.944Z,86143.11
2019-02-11T05:06:16.744Z,86150.13
2019-02-11T05:08:43.548Z,86159.56
2019-02-11T05:11:10.418Z,86153.77
2019-02-11T05:13:37.225Z,86157.66
2019-02-11T05:16:04.020Z,86153.03
2019-02-11T05:18:30.886Z,86154.12
2019-02-11T05:20:57.675Z,86151.00
2019-02-11T05:23:24.457Z,86161.72
2019-02-11T05:25:51.326Z,86160.83
2019-02-11T05:28:18.121Z,86159.86
2019-02-11T05:30:44.919Z,86168.34
2019-02-11T05:33:11.892Z,86175.72
2019-02-11T05:35:38.680Z,86179.75
2019-02-11T05:38:05.470Z,86185.25
2019-02-11T05:40:32.422Z,86186.37
2019-02-11T05:42:59.233Z,86182.53
2019-02-11T05:45:26.050Z,86187.94
2019-02-11T05:47:53.084Z,86196.66
2019-02-11T05:50:19.868Z,86199.06
2019-02-11T05:52:46.699Z,86198.84
2019-02-11T05:55:13.562Z,86206.48
2019-02-11T05:57:40.364Z,86205.46
2019-02-11T06:00:10.860Z,86205.87
2019-02-11T06:02:37.740Z,86211.63
2019-02-11T06:05:06.428Z,86214.27
2019-02-11T06:07:33.232Z,86218.50
2019-02-11T06:10:00.161Z,86227.71
2019-02-11T06:12:26.999Z,86240.54
2019-02-11T06:14:55.369Z,86243.40
2019-02-11T06:17:22.461Z,86241.95
2019-02-11T06:19:49.253Z,86244.34
2019-02-11T06:22:16.042Z,86249.73
2019-02-11T06:24:42.983Z,86261.52
2019-02-11T06:27:09.786Z,86263.72
2019-02-11T06:29:36.582Z,86275.92
2019-02-11T06:32:03.429Z,86290.17
2019-02-11T06:34:30.221Z,86302.94
2019-02-11T06:36:59.887Z,86307.27
2019-02-11T06:39:26.754Z,86325.34
2019-02-11T06:41:53.555Z,86332.65
2019-02-11T06:44:20.359Z,86335.08
2019-02-11T06:46:47.342Z,86319.81
2019-02-11T06:49:21.118Z,86322.21
2019-02-11T06:51:52.731Z,86314.72
2019-02-11T06:54:23.290Z,86324.56
2019-02-11T06:56:50.055Z,86327.83
2019-02-11T06:59:16.921Z,86335.45
2019-02-11T07:01:43.716Z,86338.68
2019-02-11T07:04:10.506Z,86336.77
2019-02-11T07:06:37.458Z,86331.11
2019-02-11T07:09:04.447Z,86345.31
2019-02-11T07:11:31.235Z,86348.09
2019-02-11T07:13:58.181Z,86350.82
2019-02-11T07:16:24.978Z,86349.89
2019-02-11T07:18:51.768Z,86354.67
2019-02-11T07:21:18.690Z,86358.47
2019-02-11T07:23:45.496Z,86355.94
2019-02-11T07:26:12.283Z,86347.41
2019-02-11T07:28:39.217Z,86354.52
2019-02-11T07:31:06.014Z,86355.06
2019-02-11T07:33:32.808Z,86364.89
2019-02-11T07:35:59.737Z,86370.39
2019-02-11T07:38:26.534Z,86374.70
2019-02-11T07:40:53.335Z,86368.59
2019-02-11T07:43:20.192Z,86371.81
2019-02-11T07:45:46.996Z,86380.73
2019-02-11T07:48:13.775Z,86385.16
2019-02-11T07:50:40.637Z,86385.67
2019-02-11T07:53:07.427Z,86400.22
2019-02-11T07:55:34.266Z,86395.63
2019-02-11T07:58:01.120Z,86393.61
2019-02-11T08:00:27.909Z,86392.56
2019-02-11T08:02:54.694Z,86384.48
2019-02-11T08:05:21.813Z,86385.55
2019-02-11T08:07:48.616Z,86391.41
2019-02-11T08:10:15.392Z,86392.70
2019-02-11T08:12:42.253Z,86394.28
2019-02-11T08:15:09.037Z,86392.66
2019-02-11T08:17:35.832Z,86397.70
2019-02-11T08:20:05.777Z,86404.42
2019-02-11T08:22:32.567Z,86409.28
2019-02-11T08:24:59.369Z,86409.25
2019-02-11T08:27:26.293Z,86409.78
2019-02-11T08:29:53.103Z,86408.64
2019-02-11T08:32:19.890Z,86417.66
2019-02-11T08:34:46.807Z,86420.75
2019-02-11T08:37:13.588Z,86430.11
2019-02-11T08:39:40.383Z,86424.91
2019-02-11T08:42:07.307Z,86429.70
2019-02-11T08:44:34.043Z,86428.63
2019-02-11T08:47:00.986Z,86431.42
2019-02-11T08:49:27.922Z,86431.96
2019-02-11T08:51:54.715Z,86441.94
2019-02-11T08:54:21.500Z,86441.06
2019-02-11T08:56:48.506Z,86436.81
2019-02-11T08:59:15.298Z,86444.95
2019-02-11T09:01:42.096Z,86443.94
2019-02-11T09:04:08.948Z,86452.97
2019-02-11T09:06:35.748Z,86461.23
2019-02-11T09:09:02.533Z,86461.58
2019-02-11T09:11:29.480Z,86459.58
2019-02-11T09:13:56.259Z,86470.40
2019-02-11T09:16:23.057Z,86474.76
2019-02-11T09:18:49.925Z,86484.66
2019-02-11T09:21:16.745Z,86480.02
2019-02-11T09:23:43.544Z,86485.02
2019-02-11T09:26:10.388Z,86495.02
2019-02-11T09:28:37.185Z,86503.07
2019-02-11T09:31:03.976Z,86504.42
2019-02-11T09:33:30.841Z,86504.52
2019-02-11T09:35:57.622Z,86517.28
2019-02-11T09:38:24.407Z,86520.02
2019-02-11T09:40:51.297Z,86515.42
2019-02-11T09:43:18.079Z,86522.55
2019-02-11T09:45:44.866Z,86530.70
2019-02-11T09:48:11.737Z,86537.11
2019-02-11T09:50:44.823Z,86542.09
2019-02-11T09:53:11.613Z,86544.84
2019-02-11T09:55:38.473Z,86554.81
2019-02-11T09:58:08.984Z,86560.84
2019-02-11T10:00:35.749Z,86562.30
2019-02-11T10:03:02.625Z,86568.73
2019-02-11T10:05:29.433Z,86579.69
2019-02-11T10:07:56.223Z,86570.98
2019-02-11T10:10:23.078Z,86585.48
2019-02-11T10:12:49.874Z,86585.36
2019-02-11T10:15:16.666Z,86590.33
2019-02-11T10:17:43.599Z,86601.20
2019-02-11T10:20:13.593Z,86600.19
2019-02-11T10:22:41.336Z,86599.08
2019-02-11T10:25:18.553Z,86599.96
2019-02-11T10:27:45.338Z,86599.99
2019-02-11T10:30:13.830Z,86609.72
2019-02-11T10:32:40.766Z,86615.38
2019-02-11T10:35:10.148Z,86610.19
2019-02-11T10:37:36.941Z,86607.88
2019-02-11T10:40:07.372Z,86620.52
2019-02-11T10:42:34.170Z,86619.98
2019-02-11T10:45:00.972Z,86621.81
2019-02-11T10:47:27.816Z,86618.98
2019-02-11T10:49:54.625Z,86629.66
2019-02-11T10:52:21.394Z,86623.50
2019-02-11T10:54:48.319Z,86632.98
2019-02-11T10:57:15.104Z,86645.61
2019-02-11T10:59:41.932Z,86642.26
2019-02-11T11:02:08.786Z,86647.80
2019-02-11T11:04:35.584Z,86640.01
2019-02-11T11:07:02.368Z,86638.05
2019-02-11T11:09:29.244Z,86639.72
2019-02-11T11:11:56.039Z,86647.03
2019-02-11T11:14:22.838Z,86646.38
2019-02-11T11:16:49.698Z,86651.16
2019-02-11T11:19:16.465Z,86653.94
2019-02-11T11:21:43.271Z,86657.25
2019-02-11T11:24:10.143Z,86662.36
2019-02-11T11:26:36.946Z,86664.54
2019-02-11T11:29:03.754Z,86668.89
2019-02-11T11:31:30.616Z,86660.43
2019-02-11T11:33:57.412Z,86656.22
2019-02-11T11:36:24.207Z,86664.20
2019-02-11T11:38:51.075Z,86660.19
2019-02-11T11:41:17.878Z,86663.84
2019-02-11T11:43:44.682Z,86667.22
2019-02-11T11:46:11.533Z,86666.97
2019-02-11T11:48:38.348Z,86674.57
2019-02-11T11:51:05.129Z,86678.07
2019-02-11T11:53:31.997Z,86683.97
2019-02-11T11:56:02.117Z,86678.53
2019-02-11T11:58:27.674Z,86686.63
2019-02-11T12:00:54.790Z,86681.42
2019-02-11T12:03:21.556Z,86693.17
2019-02-11T12:05:48.353Z,86689.67
2019-02-11T12:08:15.240Z,86708.57
2019-02-11T12:10:42.041Z,86698.43
2019-02-11T12:13:21.808Z,86699.43
2019-02-11T12:15:37.897Z,86703.79
2019-02-11T12:18:04.647Z,86697.22
2019-02-11T12:20:33.468Z,86703.55
2019-02-11T12:23:00.175Z,86713.77
2019-02-11T12:25:26.970Z,86708.73
2019-02-11T12:27:53.774Z,86707.48
2019-02-11T12:30:25.454Z,86706.17
2019-02-11T12:32:54.594Z,86708.48
2019-02-11T12:35:20.811Z,86726.00
2019-02-11T12:37:47.767Z,86726.14
2019-02-11T12:40:14.568Z,86725.33
2019-02-11T12:42:41.368Z,86718.83
2019-02-11T12:45:12.416Z,86717.16
2019-02-11T12:47:39.197Z,86727.18
2019-02-11T12:50:10.098Z,86730.28
2019-02-11T12:52:56.758Z,86715.98
2019-02-11T12:55:23.547Z,86722.77
2019-02-11T12:57:50.333Z,86722.36
2019-02-11T13:00:22.019Z,86730.77
2019-02-11T13:02:49.028Z,86731.65
2019-02-11T13:05:15.914Z,86732.50
2019-02-11T13:07:42.862Z,86730.03
2019-02-11T13:10:12.343Z,86730.63
2019-02-11T13:12:39.763Z,86735.20
2019-02-11T13:15:09.603Z,86738.21
2019-02-11T13:17:36.434Z,86732.56
2019-02-11T13:20:10.014Z,86736.73
2019-02-11T13:22:35.749Z,86728.93
2019-02-11T13:25:08.073Z,86736.25
2019-02-11T13:27:33.451Z,86744.74
2019-02-11T13:30:00.572Z,86738.91
2019-02-11T13:32:27.403Z,86751.31
2019-02-11T13:34:54.191Z,86752.25
2019-02-11T13:37:21.039Z,86758.86
2019-02-11T13:39:47.859Z,86758.19
2019-02-11T13:42:14.663Z,86765.34
2019-02-11T13:44:41.524Z,86773.55
2019-02-11T13:47:08.313Z,86778.14
2019-02-11T13:49:35.086Z,86768.94
2019-02-11T13:52:02.027Z,86769.13
2019-02-11T13:54:28.783Z,86778.76
2019-02-11T13:56:55.591Z,86776.33
2019-02-11T13:59:22.527Z,86794.47
2019-02-11T14:01:49.305Z,86795.74
2019-02-11T14:04:16.148Z,86792.52
2019-02-11T14:06:42.999Z,86795.42
2019-02-11T14:09:11.206Z,86800.02
2019-02-11T14:11:38.509Z,86806.62
2019-02-11T14:14:05.483Z,86815.48
2019-02-11T14:16:32.318Z,86808.28
2019-02-11T14:18:59.103Z,86823.97
2019-02-11T14:21:25.965Z,86829.47
2019-02-11T14:23:52.763Z,86823.02
2019-02-11T14:26:19.551Z,86819.16
2019-02-11T14:28:49.475Z,86823.23
2019-02-11T14:31:14.987Z,86836.98
2019-02-11T14:33:41.773Z,86832.24
2019-02-11T14:36:08.623Z,86836.16
2019-02-11T14:38:35.404Z,86838.58
2019-02-11T14:41:02.216Z,86847.56
2019-02-11T14:43:29.052Z,86840.74
2019-02-11T14:45:55.831Z,86854.89
2019-02-11T14:48:27.411Z,86850.77
2019-02-11T14:50:51.278Z,86852.05
2019-02-11T14:53:18.090Z,86850.86
2019-02-11T14:55:44.863Z,86855.76
2019-02-11T14:58:11.790Z,86864.72
2019-02-11T15:00:38.568Z,86872.92
2019-02-11T15:03:05.443Z,86861.78
2019-02-11T15:05:32.445Z,86873.81
2019-02-11T15:07:59.243Z,86878.03
2019-02-11T15:10:26.043Z,86871.36
2019-02-11T15:12:52.981Z,86881.41
2019-02-11T15:15:19.819Z,86879.26
2019-02-11T15:17:46.619Z,86889.52
2019-02-11T15:20:15.678Z,86892.21
2019-02-11T15:22:42.479Z,86894.25
2019-02-11T15:25:12.268Z,86897.59
2019-02-11T15:27:39.209Z,86903.02
2019-02-11T15:30:09.902Z,86898.25
2019-02-11T15:32:36.710Z,86911.66
2019-02-11T15:35:05.560Z,86904.31
2019-02-11T15:37:32.353Z,86903.24
2019-02-11T15:39:59.134Z,86906.16
2019-02-11T15:42:26.063Z,86912.19
2019-02-11T15:44:52.858Z,86907.65
2019-02-11T15:47:19.638Z,86906.91
2019-02-11T15:49:46.471Z,86934.11
2019-02-11T15:52:13.265Z,86938.98
2019-02-11T15:54:40.044Z,86937.79
2019-02-11T15:57:06.978Z,86943.77
2019-02-11T15:59:33.753Z,86947.83
2019-02-11T16:02:00.558Z,86952.28
2019-02-11T16:04:27.390Z,86946.55
2019-02-11T16:06:58.266Z,86945.26
2019-02-11T16:09:25.050Z,86956.70
2019-02-11T16:11:52.572Z,86961.98
2019-02-11T16:14:28.190Z,86952.17
2019-02-11T16:16:55.116Z,86963.05
2019-02-11T16:19:21.884Z,86972.48
2019-02-11T16:21:48.683Z,86986.20
2019-02-11T16:24:15.547Z,86988.23
2019-02-11T16:26:42.326Z,86981.89
2019-02-11T16:29:09.123Z,86992.36
2019-02-11T16:31:36.048Z,86993.85
2019-02-11T16:34:02.852Z,86999.56
2019-02-11T16:36:29.641Z,87011.22
2019-02-11T16:38:56.498Z,86995.20
2019-02-11T16:41:23.269Z,86997.31
2019-02-11T16:43:50.054Z,87000.75
2019-02-11T16:46:16.912Z,87007.69
2019-02-11T16:48:43.697Z,87020.18
2019-02-11T16:51:10.468Z,87018.28
2019-02-11T16:53:37.406Z,87035.03
2019-02-11T16:56:04.220Z,87037.59
2019-02-11T16:58:31.029Z,87037.34
2019-02-11T17:00:57.873Z,87035.80
2019-02-11T17:03:24.682Z,87048.27
2019-02-11T17:05:51.463Z,87047.62
2019-02-11T17:08:18.442Z,87047.75
2019-02-11T17:10:45.221Z,87058.09
2019-02-11T17:13:12.053Z,87060.41
2019-02-11T17:15:38.924Z,87071.46
2019-02-11T17:18:05.732Z,87067.34
2019-02-11T17:20:32.535Z,87081.89
2019-02-11T17:22:59.416Z,87086.59
2019-02-11T17:25:26.260Z,87093.66
2019-02-11T17:27:53.128Z,87094.01
2019-02-11T17:30:27.780Z,87090.86
2019-02-11T17:32:54.638Z,87104.20
2019-02-11T17:35:21.612Z,87101.21
2019-02-11T17:37:48.518Z,87124.38
2019-02-11T17:40:15.349Z,87113.28
2019-02-11T17:42:42.209Z,87119.66
2019-02-11T17:45:15.741Z,87121.16
2019-02-11T17:47:42.612Z,87121.84
2019-02-11T17:50:10.095Z,87120.58
2019-02-11T17:52:37.038Z,87131.06
2019-02-11T17:55:08.193Z,87125.88
2019-02-11T17:57:35.034Z,87132.15
2019-02-11T18:00:03.154Z,87132.19
2019-02-11T18:02:30.133Z,87131.74
2019-02-11T18:04:56.995Z,87139.67
2019-02-11T18:07:23.922Z,87144.41
2019-02-11T18:09:51.165Z,87144.17
2019-02-11T18:12:18.044Z,87151.53
2019-02-11T18:14:45.203Z,87150.87
2019-02-11T18:17:12.412Z,87152.45
2019-02-11T18:19:39.304Z,87163.94
2019-02-11T18:22:06.355Z,87161.03
2019-02-11T18:24:33.340Z,87171.30
2019-02-11T18:27:00.180Z,87182.01
2019-02-11T18:29:27.304Z,87175.94
2019-02-11T18:31:54.289Z,87181.69
2019-02-11T18:34:21.820Z,87175.02
2019-02-11T18:36:48.758Z,87175.75
2019-02-11T18:39:15.677Z,87190.27
2019-02-11T18:41:42.543Z,87185.94
2019-02-11T18:44:09.571Z,87200.41
2019-02-11T18:46:36.413Z,87207.99
2019-02-11T18:49:03.295Z,87200.89
2019-02-11T18:51:30.501Z,87203.84
2019-02-11T18:53:57.703Z,87206.35
2019-02-11T18:56:24.699Z,87220.73
2019-02-11T18:58:51.955Z,87213.05
2019-02-11T19:01:18.790Z,87219.92
2019-02-11T19:03:45.636Z,87228.63
2019-02-11T19:06:12.775Z,87230.81
2019-02-11T19:08:39.657Z,87239.88
2019-02-11T19:11:10.397Z,87238.64
2019-02-11T19:13:37.496Z,87246.05
2019-02-11T19:16:04.488Z,87255.72
2019-02-11T19:18:33.198Z,87255.72
2019-02-11T19:21:00.187Z,87272.67
2019-02-11T19:23:28.142Z,87269.03
2019-02-11T19:25:55.876Z,87283.23
2019-02-11T19:28:22.896Z,87283.19
2019-02-11T19:30:49.726Z,87298.18
2019-02-11T19:33:16.595Z,87296.05
2019-02-11T19:35:43.848Z,87307.01
2019-02-11T19:38:10.722Z,87293.46
2019-02-11T19:40:37.553Z,87299.02
2019-02-11T19:43:04.559Z,87298.92
2019-02-11T19:45:31.446Z,87296.89
2019-02-11T19:47:58.437Z,87290.92
2019-02-11T19:50:25.394Z,87296.16
2019-02-11T19:52:52.532Z,87299.59
2019-02-11T19:55:19.519Z,87319.00
2019-02-11T19:57:46.477Z,87315.85
2019-02-11T20:00:19.386Z,87308.77
2019-02-11T20:02:47.022Z,87317.83
2019-02-11T20:05:14.235Z,87325.97
2019-02-11T20:07:41.125Z,87310.37
2019-02-11T20:10:14.389Z,87326.73
2019-02-11T20:12:41.444Z,87320.19
2019-02-11T20:15:21.520Z,87326.28
2019-02-11T20:17:48.454Z,87316.16
2019-02-11T20:20:18.342Z,87322.85
2019-02-11T20:22:45.229Z,87320.19
2019-02-11T20:25:12.467Z,87318.89
2019-02-11T20:27:39.438Z,87322.09
2019-02-11T20:30:20.070Z,87318.31
2019-02-11T20:32:47.045Z,87314.58
2019-02-11T20:35:13.910Z,87320.23
2019-02-11T20:37:40.960Z,87329.19
2019-02-11T20:40:12.460Z,87331.70
2019-02-11T20:42:39.320Z,87317.68
2019-02-11T20:45:16.981Z,87329.12
2019-02-11T20:47:46.393Z,87341.88
2019-02-11T20:50:13.469Z,87332.83
2019-02-11T20:52:40.513Z,87333.75
2019-02-11T20:55:12.621Z,87338.00
2019-02-11T20:57:44.230Z,87329.64
2019-02-11T21:00:23.826Z,87338.23
2019-02-11T21:02:51.072Z,87344.56
2019-02-11T21:05:17.924Z,87325.98
2019-02-11T21:07:46.955Z,87355.28
2019-02-11T21:10:23.071Z,87343.19
2019-02-11T21:12:49.934Z,87367.59
2019-02-11T21:15:16.745Z,87356.96
2019-02-11T21:17:43.588Z,87361.82
2019-02-11T21:20:38.413Z,87381.98
2019-02-11T21:23:07.661Z,87377.02
2019-02-11T21:25:34.438Z,87368.81
2019-02-11T21:28:01.249Z,87373.08
2019-02-11T21:30:28.182Z,87372.16
2019-02-11T21:32:54.975Z,87392.99
2019-02-11T21:35:21.757Z,87393.77
2019-02-11T21:37:48.701Z,87394.08
2019-02-11T21:40:15.511Z,87404.88
2019-02-11T21:42:42.290Z,87405.34
2019-02-11T21:45:11.039Z,87398.27
2019-02-11T21:47:37.814Z,87392.33
2019-02-11T21:50:09.294Z,87406.20
2019-02-11T21:52:36.299Z,87395.78
2019-02-11T21:55:07.388Z,87394.84
2019-02-11T21:57:34.178Z,87379.86
2019-02-11T22:00:01.040Z,87392.02
2019-02-11T22:02:27.816Z,87383.68
2019-02-11T22:04:54.586Z,87385.11
2019-02-11T22:07:21.427Z,87385.17
2019-02-11T22:09:48.195Z,87386.63
2019-02-11T22:12:14.989Z,87373.45
2019-02-11T22:14:41.959Z,87374.99
2019-02-11T22:17:08.739Z,87369.28
2019-02-11T22:19:35.541Z,87381.55
2019-02-11T22:22:02.444Z,87377.21
2019-02-11T22:24:29.232Z,87392.50
2019-02-11T22:26:56.012Z,87397.59
2019-02-11T22:29:22.865Z,87401.78
2019-02-11T22:31:49.649Z,87409.86
2019-02-11T22:34:16.419Z,87409.30
2019-02-11T22:36:43.349Z,87411.23
2019-02-11T22:39:10.116Z,87404.98
2019-02-11T22:41:36.911Z,87408.02
2019-02-11T22:44:03.771Z,87410.16
2019-02-11T22:46:30.545Z,87427.67
2019-02-11T22:48:57.342Z,87424.98
2019-02-11T22:51:24.283Z,87435.44
2019-02-11T22:53:51.072Z,87449.59
2019-02-11T22:56:17.858Z,87453.41
2019-02-11T22:58:44.724Z,87450.42
2019-02-11T23:01:11.499Z,87457.59
2019-02-11T23:03:38.290Z,87462.61
2019-02-11T23:06:05.209Z,87473.66
2019-02-11T23:08:31.992Z,87479.59
2019-02-11T23:10:58.780Z,87491.10
2019-02-11T23:13:25.653Z,87493.00
2019-02-11T23:15:52.472Z,87491.63
2019-02-11T23:18:19.271Z,87501.67
2019-02-11T23:20:51.858Z,87487.97
2019-02-11T23:23:14.719Z,87494.98
2019-02-11T23:25:41.502Z,87478.75
2019-02-11T23:28:08.335Z,87465.42
2019-02-11T23:30:35.134Z,87476.02
2019-02-11T23:33:01.930Z,87473.41
2019-02-11T23:35:28.789Z,87478.28
2019-02-11T23:37:55.578Z,87466.66
2019-02-11T23:40:22.368Z,87464.73
2019-02-11T23:43:08.941Z,87468.61
2019-02-11T23:45:35.717Z,87472.12
2019-02-11T23:48:03.746Z,87473.87
2019-02-11T23:50:30.855Z,87476.02
2019-02-11T23:52:57.647Z,87470.22
2019-02-11T23:55:24.448Z,87474.95
2019-02-11T23:57:51.307Z,87476.69
